Time;durP1;ratioP1;P1;durP2;ratioP2;P2;SDS_P1;SDS_P2;PMS_P1;PMS_P2;Temp;Humidity;BMP_temperature;BMP_pressure;BME280_temperature;BME280_humidity;BME280_pressure;Samples;Min_cycle;Max_cycle;Signal;HPM_P1;HPM_P2
2022/02/04 00:23:09;;;;;;;11.05;6.00;;;;;;;-2.71;58.68;100571.83;1666499;85;21565;-68
2022/02/04 00:28:13;;;;;;;11.63;6.60;;;;;;;-2.76;58.95;100564.52;1647981;85;21171;-67
2022/02/04 00:30:38;;;;;;;9.53;5.87;;;;;;;-2.78;59.12;100562.55;1670563;84;21605;-68
2022/02/04 00:33:02;;;;;;;10.98;5.95;;;;;;;-2.80;59.26;100559.27;1618103;86;21583;-67
2022/02/04 00:38:25;;;;;;;11.88;6.60;;;;;;;-2.82;59.41;100553.92;1700063;84;22246;-68
2022/02/04 00:40:49;;;;;;;11.22;6.50;;;;;;;-2.80;59.51;100559.77;1693338;84;21678;-68
2022/02/04 00:43:16;;;;;;;12.40;7.30;;;;;;;-2.81;59.60;100558.97;1680547;84;21103;-68
2022/02/04 00:45:52;;;;;;;12.78;6.72;;;;;;;-2.80;59.71;100559.27;1655826;85;21041;-69
2022/02/04 00:51:14;;;;;;;11.48;6.85;;;;;;;-2.74;59.83;100565.14;1653458;86;21026;-67
2022/02/04 00:53:44;;;;;;;10.45;6.03;;;;;;;-2.71;59.88;100548.30;1716428;82;21154;-68
2022/02/04 00:56:21;;;;;;;11.25;6.75;;;;;;;-2.66;59.88;100561.20;1717261;82;21003;-68
2022/02/04 01:26:07;;;;;;;13.03;7.30;;;;;;;-2.24;59.68;100557.36;1717627;82;20975;-68
2022/02/04 01:28:34;;;;;;;12.43;6.45;;;;;;;-2.22;59.66;100562.44;1717396;82;21011;-67
2022/02/04 01:31:01;;;;;;;10.88;6.37;;;;;;;-2.19;59.59;100556.36;1707340;82;20972;-67
2022/02/04 01:33:29;;;;;;;10.78;6.45;;;;;;;-2.16;59.76;100560.44;1702384;84;21149;-67
2022/02/04 01:35:55;;;;;;;11.85;6.97;;;;;;;-2.10;59.61;100561.05;1702358;84;21020;-67
2022/02/04 01:38:24;;;;;;;11.10;6.58;;;;;;;-2.03;59.57;100560.67;1702458;84;21558;-67
2022/02/04 01:40:50;;;;;;;12.13;7.10;;;;;;;-1.96;59.49;100561.59;1702311;84;20968;-68
2022/02/04 01:43:22;;;;;;;11.68;7.28;;;;;;;-1.96;59.39;100562.09;1702333;83;21456;-68
2022/02/04 01:45:49;;;;;;;13.25;7.03;;;;;;;-1.96;59.39;100562.09;1702134;84;21549;-67
2022/02/04 01:48:16;;;;;;;13.25;7.35;;;;;;;-1.93;59.38;100565.67;1702335;84;20996;-67
2022/02/04 01:50:49;;;;;;;13.88;7.17;;;;;;;-1.87;59.39;100571.52;1702481;84;20980;-68
2022/02/04 01:53:17;;;;;;;;;;;;;;;-1.84;59.35;100569.87;1704874;84;21000;-68
2022/02/04 01:55:45;;;;;;;10.60;6.53;;;;;;;-1.81;59.19;100570.83;1702559;82;20143;-68
2022/02/04 01:58:12;;;;;;;11.18;6.70;;;;;;;-1.78;59.15;100563.09;1702392;84;21892;-68
2022/02/04 02:00:38;;;;;;;11.70;6.40;;;;;;;-1.78;58.86;100562.59;1702725;84;21001;-68
2022/02/04 02:03:08;;;;;;;11.85;6.95;;;;;;;-1.78;58.77;100563.91;1702210;84;21036;-68
2022/02/04 02:05:35;;;;;;;10.25;6.45;;;;;;;-1.76;58.75;100563.24;1702524;82;21055;-67
2022/02/04 02:08:07;;;;;;;11.88;6.62;;;;;;;-1.77;58.72;100562.94;1716184;82;21094;-68
2022/02/04 02:10:35;;;;;;;12.47;6.40;;;;;;;-1.75;58.56;100562.74;1717887;82;21153;-68
2022/02/04 02:38:48;;;;;;;10.65;6.45;;;;;;;-1.90;57.54;100567.45;1702322;84;21105;-67
2022/02/04 02:55:06;;;;;;;9.55;5.50;;;;;;;-2.24;57.25;100590.06;1714575;82;21050;-67
2022/02/04 02:57:51;;;;;;;8.25;5.30;;;;;;;-2.30;57.19;100584.23;1673811;85;20990;-66
2022/02/04 03:00:01;;;;;;;9.75;5.60;;;;;;;-2.35;57.18;100586.53;1670607;85;21192;-66
2022/02/04 03:02:22;;;;;;;11.33;5.92;;;;;;;-2.39;57.18;100590.48;1673319;85;21053;-68
2022/02/04 03:04:49;;;;;;;10.05;6.28;;;;;;;-2.44;57.14;100583.63;1641404;87;21018;-67
2022/02/04 03:07:15;;;;;;;11.63;6.20;;;;;;;-2.49;57.13;100584.16;1674428;84;21026;-67
2022/02/04 03:09:42;;;;;;;8.60;5.00;;;;;;;-2.50;57.20;100586.47;1624790;87;21536;-68
2022/02/04 03:12:09;;;;;;;10.95;5.58;;;;;;;-2.54;57.17;100586.45;1674503;84;21073;-68
2022/02/04 03:14:35;;;;;;;10.38;5.70;;;;;;;-2.58;57.15;100585.67;1674685;84;21671;-68
2022/02/04 03:17:06;;;;;;;10.53;5.78;;;;;;;-2.62;57.17;100586.02;1641584;86;21501;-67
2022/02/04 03:19:32;;;;;;;9.48;5.50;;;;;;;-2.63;57.11;100594.84;1641425;86;21450;-67
2022/02/04 03:22:04;;;;;;;8.20;4.90;;;;;;;-2.65;57.03;100587.66;1641547;87;21067;-67
2022/02/04 03:24:28;;;;;;;8.33;5.15;;;;;;;-2.66;57.01;100589.15;1640989;87;20983;-67
2022/02/04 03:26:59;;;;;;;8.58;4.72;;;;;;;-2.67;56.97;100588.30;1641491;87;22190;-67
2022/02/04 03:29:28;;;;;;;7.60;4.35;;;;;;;-2.67;56.82;100588.30;1666748;85;21049;-67
2022/02/04 03:31:56;;;;;;;8.00;4.55;;;;;;;-2.66;56.75;100592.57;1668078;84;20983;-67
2022/02/04 03:34:20;;;;;;;7.67;4.35;;;;;;;-2.65;56.66;100596.81;1665913;84;21130;-67
2022/02/04 03:36:47;;;;;;;8.95;5.70;;;;;;;-2.65;56.47;100596.81;1665755;86;20991;-67
2022/02/04 03:39:13;;;;;;;12.03;6.45;;;;;;;-2.65;56.49;100601.23;1665750;86;21125;-67
2022/02/04 03:41:41;;;;;;;10.45;5.67;;;;;;;-2.65;56.66;100604.65;1665693;86;21163;-67
2022/02/04 03:44:08;;;;;;;12.68;7.55;;;;;;;-2.80;56.89;100596.37;1665756;84;21529;-67
2022/02/04 03:46:34;;;;;;;12.15;7.30;;;;;;;-2.91;57.05;100597.55;1666021;86;21680;-67
2022/02/04 03:49:01;;;;;;;12.58;7.83;;;;;;;-3.00;57.37;100603.78;1665678;86;20971;-68
2022/02/04 03:51:27;;;;;;;12.88;6.62;;;;;;;-3.07;57.62;100610.16;1665722;86;21099;-67
2022/02/04 03:53:54;;;;;;;13.80;7.03;;;;;;;-3.08;57.80;100611.97;1665757;84;21438;-67
2022/02/04 03:56:20;;;;;;;14.03;7.42;;;;;;;-3.16;57.95;100608.08;1641012;84;20987;-67
2022/02/04 03:58:47;;;;;;;14.30;7.45;;;;;;;-3.20;58.20;100613.78;1717503;82;21490;-67
2022/02/04 04:01:13;;;;;;;14.78;8.20;;;;;;;-3.28;58.44;100606.78;1717413;82;21434;-68
2022/02/04 04:03:40;;;;;;;14.25;7.90;;;;;;;-3.32;58.64;100611.52;1717204;82;21550;-68
2022/02/04 04:06:09;;;;;;;16.80;9.20;;;;;;;-3.33;58.93;100605.95;1717348;82;21007;-67
2022/02/04 04:08:36;;;;;;;14.45;9.03;;;;;;;-3.36;59.11;100602.36;1717416;82;21010;-67
2022/02/04 04:11:04;;;;;;;13.62;7.95;;;;;;;-3.36;59.19;100606.77;1717508;82;21141;-68
2022/02/04 04:13:30;;;;;;;13.70;7.62;;;;;;;-3.35;59.29;100610.54;1717373;82;21078;-67
2022/02/04 04:15:58;;;;;;;13.60;8.40;;;;;;;-3.39;59.42;100608.41;1715916;82;20992;-67
2022/02/04 04:18:25;;;;;;;17.17;9.25;;;;;;;-3.45;59.50;100607.78;1717510;82;21416;-67
2022/02/04 04:20:51;;;;;;;18.27;9.78;;;;;;;-3.51;59.63;100624.91;1717786;83;21442;-67
2022/02/04 04:23:19;;;;;;;16.20;9.38;;;;;;;-3.55;59.77;100624.92;1717236;82;21046;-67
2022/02/04 04:25:45;;;;;;;18.65;9.30;;;;;;;-3.58;59.94;100622.14;1717616;82;21011;-67
2022/02/04 04:28:15;;;;;;;16.10;9.30;;;;;;;-3.65;60.11;100621.16;1719848;83;21579;-67
2022/02/04 04:30:42;;;;;;;15.43;8.95;;;;;;;-3.74;60.35;100624.73;1718180;82;21012;-66
2022/02/04 04:33:10;;;;;;;13.88;8.55;;;;;;;-3.80;60.57;100627.98;1717610;82;20975;-67
2022/02/04 04:35:38;;;;;;;17.12;9.53;;;;;;;-3.86;60.84;100624.22;1717520;82;21007;-67
2022/02/04 04:46:21;;;;;;;16.45;9.50;;;;;;;-4.08;61.66;100626.97;1701407;83;20986;-67
2022/02/04 05:29:24;;;;;;;15.98;8.90;;;;;;;-4.82;64.59;100657.63;1702428;84;21546;-68
2022/02/04 05:31:51;;;;;;;17.65;9.20;;;;;;;-4.86;64.72;100651.91;1702232;82;20972;-68
2022/02/04 05:34:20;;;;;;;16.35;9.90;;;;;;;-4.88;64.98;100658.23;1702388;84;21488;-68
2022/02/04 05:36:50;;;;;;;17.90;9.33;;;;;;;-4.90;65.03;100655.80;1704002;82;21022;-68
2022/02/04 05:39:25;;;;;;;15.83;9.18;;;;;;;-4.89;65.13;100663.94;1717403;82;21506;-68
2022/02/04 05:41:49;;;;;;;18.50;10.23;;;;;;;-4.92;65.29;100668.64;1718180;82;20995;-67
2022/02/04 05:44:16;;;;;;;17.90;9.65;;;;;;;-4.94;65.40;100660.96;1716029;82;21011;-68
2022/02/04 05:47:01;;;;;;;16.05;9.55;;;;;;;-4.93;65.45;100663.11;1715915;82;21412;-68
2022/02/04 05:49:25;;;;;;;17.45;10.00;;;;;;;-4.94;65.52;100662.27;1717526;83;21450;-67
2022/02/04 05:54:36;;;;;;;18.20;9.48;;;;;;;-4.91;65.66;100658.55;1717325;82;21056;-67
2022/02/04 05:57:03;;;;;;;16.90;8.95;;;;;;;-4.92;65.71;100661.64;1716459;82;21513;-67
2022/02/04 06:02:19;;;;;;;17.60;9.65;;;;;;;-4.96;65.92;100666.34;1717851;82;21003;-67
2022/02/04 06:07:31;;;;;;;16.60;9.50;;;;;;;-4.95;66.04;100662.75;1717970;82;21105;-67
2022/02/04 06:15:09;;;;;;;19.45;10.35;;;;;;;-4.91;66.30;100679.38;1680930;83;21012;-68
2022/02/04 06:22:50;;;;;;;17.32;9.23;;;;;;;-4.75;66.29;100674.27;1717567;82;21016;-68
2022/02/04 06:25:16;;;;;;;17.73;9.75;;;;;;;-4.71;66.20;100678.20;1705719;83;21089;-67
2022/02/04 06:27:42;;;;;;;18.35;9.58;;;;;;;-4.70;66.15;100679.85;1702918;82;21002;-67
2022/02/04 06:30:12;;;;;;;14.23;8.23;;;;;;;-4.70;66.19;100677.25;1702662;82;20976;-68
2022/02/04 06:32:40;;;;;;;17.73;10.13;;;;;;;-4.65;66.23;100679.38;1703015;84;20984;-67
2022/02/04 06:35:08;;;;;;;19.90;10.25;;;;;;;-4.61;66.23;100675.48;1702564;84;21035;-67
2022/02/04 06:37:35;;;;;;;16.55;10.13;;;;;;;-4.54;66.22;100672.12;1702531;82;21136;-67
2022/02/04 06:40:03;;;;;;;18.52;10.25;;;;;;;-4.44;66.10;100671.16;1702451;83;21613;-67
2022/02/04 06:42:30;;;;;;;17.77;9.90;;;;;;;-4.37;65.97;100665.67;1702562;82;21035;-68
2022/02/04 06:45:03;;;;;;;17.32;10.32;;;;;;;-4.35;65.83;100673.64;1702603;84;21047;-67
2022/02/04 06:47:27;;;;;;;17.87;10.23;;;;;;;-4.31;65.81;100670.23;1701082;84;21554;-68
2022/02/04 06:49:54;;;;;;;16.48;9.75;;;;;;;-4.26;65.63;100668.80;1702720;84;21495;-69
2022/02/04 06:52:21;;;;;;;21.35;11.73;;;;;;;-4.19;65.53;100670.29;1702414;84;21431;-68
2022/02/04 06:54:47;;;;;;;20.17;11.60;;;;;;;-4.13;65.43;100673.58;1702785;84;21533;-68
2022/02/04 06:57:14;;;;;;;20.20;11.12;;;;;;;-4.05;65.40;100668.86;1702754;82;21546;-67
2022/02/04 06:59:43;;;;;;;18.52;10.88;;;;;;;-3.92;65.30;100680.15;1702512;84;20984;-68
2022/02/04 07:02:09;;;;;;;19.70;11.38;;;;;;;-3.82;65.13;100674.30;1702154;82;21135;-69
2022/02/04 07:04:36;;;;;;;20.15;11.45;;;;;;;-3.74;64.89;100671.72;1701181;82;21059;-68
2022/02/04 07:07:03;;;;;;;19.15;11.12;;;;;;;-3.65;64.68;100679.89;1702396;84;20976;-68
2022/02/04 07:12:28;;;;;;;17.77;10.58;;;;;;;-3.47;64.41;100677.13;1702512;82;21079;-68
2022/02/04 07:19:47;;;;;;;19.52;10.30;;;;;;;-3.30;63.62;100685.78;1702503;82;21016;-67
2022/02/04 07:22:17;;;;;;;25.90;11.80;;;;;;;-3.30;63.14;100685.78;1702547;82;21027;-67
2022/02/04 07:24:48;;;;;;;17.85;10.93;;;;;;;-3.30;63.18;100688.39;1720321;83;21083;-67
2022/02/04 07:27:15;;;;;;;20.88;11.78;;;;;;;-3.22;62.98;100683.19;1720468;83;21111;-67
2022/02/04 07:29:43;;;;;;;19.07;11.33;;;;;;;-3.16;62.89;100681.23;1720300;83;21040;-67
2022/02/04 07:32:17;;;;;;;22.30;12.93;;;;;;;-3.06;62.75;100686.25;1720529;82;21080;-67
2022/02/04 07:34:46;;;;;;;19.32;11.88;;;;;;;-2.95;62.62;100682.51;1719366;83;21056;-67
2022/02/04 07:42:37;;;;;;;21.52;12.23;;;;;;;-2.59;61.92;100673.77;1719965;83;20937;-67
2022/02/04 07:45:05;;;;;;;20.82;12.93;;;;;;;-2.46;61.65;100671.44;1720261;83;21138;-68
2022/02/04 07:47:32;;;;;;;22.62;13.00;;;;;;;-2.37;61.32;100669.12;1720054;83;21535;-67
2022/02/04 07:49:59;;;;;;;21.48;13.30;;;;;;;-2.27;61.05;100679.39;1720171;82;20949;-67
2022/02/04 07:52:25;;;;;;;23.70;13.75;;;;;;;-2.21;60.73;100672.63;1719972;82;21034;-67
2022/02/04 07:54:52;;;;;;;23.35;13.85;;;;;;;-2.15;60.46;100674.58;1720150;83;20997;-67
2022/02/04 07:57:18;;;;;;;21.73;13.53;;;;;;;-2.09;60.28;100668.66;1720218;82;21025;-67
2022/02/04 07:59:47;;;;;;;21.90;13.22;;;;;;;-1.96;60.11;100666.30;1720043;83;21040;-67
2022/02/04 08:02:14;;;;;;;16.80;11.33;;;;;;;-1.83;59.94;100673.59;1720045;83;21024;-68
2022/02/04 08:04:45;;;;;;;21.55;12.50;;;;;;;-1.73;59.36;100667.63;1720034;83;21031;-67
2022/02/04 08:07:14;;;;;;;22.20;12.65;;;;;;;-1.70;59.15;100667.79;1719936;82;21493;-67
2022/02/04 08:10:05;;;;;;;22.50;13.93;;;;;;;-1.58;59.08;100666.88;1717261;82;21004;-66
2022/02/04 08:12:44;;;;;;;22.62;13.78;;;;;;;-1.49;58.65;100656.66;1715803;82;21114;-67
2022/02/04 08:15:06;;;;;;;21.65;13.43;;;;;;;-1.28;58.19;100659.45;1714117;82;21490;-67
2022/02/04 08:38:14;;;;;;;13.10;8.13;;;;;;;-0.76;55.26;100639.44;1718043;82;21475;-69
2022/02/04 08:49:00;;;;;;;12.28;7.67;;;;;;;-0.62;53.79;100643.89;1717614;82;21125;-68
2022/02/04 08:51:28;;;;;;;13.30;7.58;;;;;;;-0.62;53.60;100645.70;1717323;82;21065;-68
2022/02/04 08:54:51;;;;;;;11.93;6.72;;;;;;;-0.60;53.40;100647.13;1717343;82;20952;-69
2022/02/04 08:56:36;;;;;;;12.07;7.20;;;;;;;-0.57;53.10;100649.39;1687845;82;21815;-68
2022/02/04 08:59:00;;;;;;;11.43;6.92;;;;;;;-0.55;52.91;100638.23;1716990;82;20976;-69
2022/02/04 09:01:29;;;;;;;13.20;6.78;;;;;;;-0.49;52.81;100641.95;1717176;82;21526;-68
2022/02/04 09:03:52;;;;;;;10.03;5.72;;;;;;;-0.44;52.47;100640.07;1716547;82;21003;-68
2022/02/04 09:06:25;;;;;;;12.03;6.97;;;;;;;-0.36;51.92;100634.23;1717537;82;21026;-69
2022/02/04 09:08:58;;;;;;;11.73;6.58;;;;;;;-0.29;51.74;100642.19;1717596;82;21522;-68
2022/02/04 09:19:27;;;;;;;9.58;5.50;;;;;;;-0.13;49.82;100639.35;1717659;82;21423;-68
2022/02/04 09:24:23;;;;;;;10.05;6.10;;;;;;;-0.07;49.56;100633.34;1717593;82;21019;-68
2022/02/04 09:26:52;;;;;;;8.03;5.00;;;;;;;-0.03;49.24;100635.12;1717607;82;21046;-68
2022/02/04 09:29:18;;;;;;;8.63;5.40;;;;;;;0.03;48.64;100640.11;1717154;83;21082;-68
2022/02/04 09:31:45;;;;;;;10.18;5.60;;;;;;;0.08;48.46;100636.44;1717627;82;21518;-68
2022/02/04 09:34:12;;;;;;;8.60;4.55;;;;;;;0.12;48.26;100629.81;1717596;82;22019;-69
2022/02/04 09:36:38;;;;;;;9.35;5.30;;;;;;;0.14;47.73;100633.88;1717343;82;21648;-68
2022/02/04 09:39:07;;;;;;;8.60;5.00;;;;;;;0.20;47.53;100628.39;1717628;82;21529;-69
2022/02/04 09:41:35;;;;;;;9.70;5.33;;;;;;;0.25;47.21;100634.39;1717683;82;21050;-69
2022/02/04 09:44:01;;;;;;;9.83;5.50;;;;;;;0.28;47.20;100627.45;1717531;82;20999;-67
2022/02/04 09:46:33;;;;;;;8.33;4.40;;;;;;;0.31;47.24;100619.19;1717655;83;21123;-67
2022/02/04 09:48:58;;;;;;;6.70;3.90;;;;;;;0.36;46.63;100617.64;1717411;82;20966;-67
2022/02/04 09:51:35;;;;;;;8.55;4.25;;;;;;;0.37;46.00;100614.50;1717928;82;21066;-68
2022/02/04 10:18:28;;;;;;;7.22;4.72;;;;;;;0.52;45.08;100603.39;1717344;82;21136;-68
2022/02/04 10:20:44;;;;;;;8.58;5.00;;;;;;;0.60;45.24;100613.79;1698678;82;21014;-68
2022/02/04 10:23:10;;;;;;;10.70;5.20;;;;;;;0.63;45.14;100613.92;1702981;82;21026;-68
2022/02/04 10:25:43;;;;;;;10.23;5.60;;;;;;;0.66;44.95;100614.34;1702884;82;21146;-67
2022/02/04 10:28:28;;;;;;;11.95;6.67;;;;;;;0.71;44.90;100615.08;1702817;84;21438;-68
2022/02/04 10:31:10;;;;;;;9.53;5.70;;;;;;;0.74;44.75;100612.58;1702865;84;21065;-67
2022/02/04 10:34:01;;;;;;;10.55;5.95;;;;;;;0.74;44.83;100594.98;1702989;84;21034;-68
2022/02/04 10:45:12;;;;;;;;;;;;;;;0.69;44.76;100595.56;1671418;86;20971;-68
2022/02/04 10:51:00;;;;;;;16.30;6.92;;;;;;;0.70;45.09;100581.92;1677166;85;21706;-68
2022/02/04 10:56:05;;;;;;;12.58;7.35;;;;;;;0.85;45.25;100581.30;1680515;85;21015;-68
2022/02/04 10:58:26;;;;;;;12.20;6.70;;;;;;;0.94;45.47;100583.28;1680444;85;21125;-68
2022/02/04 11:03:13;;;;;;;12.33;7.42;;;;;;;1.19;45.37;100576.25;1634895;85;21265;-68
2022/02/04 11:08:48;;;;;;;12.78;8.20;;;;;;;1.24;44.74;100564.12;1680663;85;21626;-68
2022/02/04 11:11:14;;;;;;;13.25;7.90;;;;;;;1.26;44.89;100569.20;1680223;84;20984;-68
2022/02/04 11:31:03;;;;;;;12.20;8.13;;;;;;;1.50;44.16;100544.19;1669063;86;21200;-67
2022/02/04 11:35:28;;;;;;;14.10;8.83;;;;;;;1.64;43.47;100540.58;1668785;84;21074;-68
2022/02/04 11:50:25;;;;;;;14.23;8.38;;;;;;;1.63;43.56;100535.82;1678373;84;21015;-69
2022/02/04 11:52:08;;;;;;;12.07;7.20;;;;;;;1.58;43.43;100539.57;1663845;85;21431;-67
2022/02/04 11:54:40;;;;;;;15.50;9.28;;;;;;;1.55;43.11;100531.26;1640999;86;21027;-68
2022/02/04 11:57:12;;;;;;;13.03;8.30;;;;;;;1.47;43.43;100530.91;1715124;82;21165;-67
2022/02/04 11:59:46;;;;;;;13.68;8.18;;;;;;;1.50;43.38;100533.66;1715551;82;21112;-67
2022/02/04 12:02:30;;;;;;;13.32;7.92;;;;;;;1.52;43.79;100535.09;1717019;82;20951;-66
2022/02/04 12:05:21;;;;;;;13.58;7.97;;;;;;;1.59;43.46;100545.13;1717518;83;21003;-67
2022/02/04 12:08:17;;;;;;;16.27;9.18;;;;;;;1.56;43.47;100537.63;1717312;82;21007;-66
2022/02/04 12:10:50;;;;;;;13.25;8.40;;;;;;;1.55;43.73;100535.20;1704623;81;21003;-67
2022/02/04 12:13:21;;;;;;;16.05;8.70;;;;;;;1.61;43.69;100535.22;1716767;82;21152;-67
2022/02/04 12:16:06;;;;;;;12.45;8.35;;;;;;;1.64;43.59;100538.75;1716050;82;20963;-69
2022/02/04 12:18:41;;;;;;;14.95;8.95;;;;;;;1.64;43.68;100537.44;1702311;82;21095;-66
2022/02/04 12:21:12;;;;;;;12.53;7.67;;;;;;;1.66;43.46;100542.52;1702638;82;21510;-67
2022/02/04 12:23:47;;;;;;;12.33;7.30;;;;;;;1.65;43.21;100542.22;1698128;83;21024;-67
2022/02/04 12:26:18;;;;;;;14.58;7.15;;;;;;;1.60;43.20;100542.80;1702625;84;21548;-67
2022/02/04 12:29:03;;;;;;;14.40;7.78;;;;;;;1.60;43.35;100540.16;1702877;82;21032;-67
2022/02/04 12:31:42;;;;;;;11.68;7.17;;;;;;;1.66;43.20;100542.52;1702581;83;21104;-68
2022/02/04 12:34:17;;;;;;;13.88;8.28;;;;;;;1.64;43.30;100541.89;1702693;82;21486;-68
2022/02/04 12:36:48;;;;;;;10.78;6.65;;;;;;;1.64;43.57;100541.38;1702698;82;21118;-67
2022/02/04 12:39:20;;;;;;;11.83;7.83;;;;;;;1.68;43.15;100538.35;1708144;83;21156;-67
2022/02/04 12:41:51;;;;;;;11.95;7.92;;;;;;;1.70;43.13;100536.34;1717481;82;21043;-66
2022/02/04 12:44:20;;;;;;;11.33;6.92;;;;;;;1.66;42.63;100539.88;1717739;82;21537;-67
2022/02/04 12:46:53;;;;;;;11.30;6.65;;;;;;;1.61;43.05;100539.17;1717588;82;20979;-67
2022/02/04 12:49:22;;;;;;;13.22;7.15;;;;;;;1.60;43.02;100537.53;1716376;82;20960;-67
2022/02/04 12:51:59;;;;;;;11.30;7.03;;;;;;;1.61;43.26;100541.80;1717395;82;21119;-67
2022/02/04 12:54:42;;;;;;;10.28;6.90;;;;;;;1.62;43.04;100546.05;1717439;82;21007;-67
2022/02/04 13:00:18;;;;;;;;;;;;;;;1.55;42.91;100538.64;1720179;82;20999;-67
2022/02/04 13:02:52;;;;;;;12.20;6.67;;;;;;;1.56;43.00;100536.82;1717102;82;20227;-67
2022/02/04 13:10:33;;;;;;;12.78;7.47;;;;;;;1.44;43.11;100537.88;1714882;82;20991;-66
2022/02/04 13:13:11;;;;;;;11.90;6.95;;;;;;;1.44;43.26;100538.39;1717497;82;21019;-67
2022/02/04 13:15:39;;;;;;;11.33;7.12;;;;;;;1.46;43.26;100543.77;1719216;83;21017;-67
2022/02/04 13:18:11;;;;;;;12.40;6.70;;;;;;;1.43;43.18;100534.95;1720088;82;21154;-68
2022/02/04 13:20:42;;;;;;;11.78;6.03;;;;;;;1.44;43.32;100544.97;1717530;82;21038;-68
2022/02/04 13:23:12;;;;;;;8.48;5.28;;;;;;;1.43;43.01;100538.90;1717572;82;21024;-68
2022/02/04 13:25:44;;;;;;;10.75;6.22;;;;;;;1.43;42.54;100550.75;1716642;82;21059;-67
2022/02/04 13:28:16;;;;;;;10.78;6.83;;;;;;;1.39;42.74;100545.57;1717425;82;20963;-67
2022/02/04 13:30:59;;;;;;;9.90;6.40;;;;;;;1.38;42.76;100542.61;1717754;82;21144;-68
2022/02/04 13:33:23;;;;;;;15.30;6.97;;;;;;;1.39;43.00;100539.80;1716466;82;21030;-68
2022/02/04 13:36:13;;;;;;;10.58;6.12;;;;;;;1.42;42.95;100542.55;1717400;82;21019;-68
2022/02/04 13:38:43;;;;;;;13.15;6.97;;;;;;;1.36;42.90;100546.77;1717862;82;21613;-68
2022/02/04 13:43:41;;;;;;;10.05;6.25;;;;;;;1.33;42.99;100547.67;1717662;82;21616;-70
2022/02/04 13:46:49;;;;;;;10.65;7.00;;;;;;;1.27;42.85;100551.89;1717133;82;21456;-68
2022/02/04 13:48:53;;;;;;;11.93;6.85;;;;;;;1.16;42.99;100549.83;1702334;82;21062;-68
2022/02/04 13:51:20;;;;;;;10.10;6.33;;;;;;;1.09;43.16;100554.25;1717403;82;22203;-68
2022/02/04 13:53:49;;;;;;;8.78;5.53;;;;;;;1.01;43.12;100542.55;1717042;82;21026;-67
2022/02/04 13:56:27;;;;;;;10.28;5.95;;;;;;;0.96;43.04;100543.15;1717440;82;21533;-67
2022/02/04 13:58:49;;;;;;;10.00;6.00;;;;;;;0.91;43.19;100538.45;1716324;82;20995;-67
2022/02/04 14:01:15;;;;;;;10.85;6.08;;;;;;;0.91;43.26;100545.53;1717524;82;21123;-68
2022/02/04 14:03:47;;;;;;;11.08;6.33;;;;;;;0.88;43.39;100548.55;1717304;82;21010;-67
2022/02/04 14:06:21;;;;;;;12.88;7.30;;;;;;;0.86;43.31;100547.44;1717356;82;21455;-68
2022/02/04 14:08:52;;;;;;;12.00;7.00;;;;;;;0.81;43.37;100549.02;1717513;82;22023;-68
2022/02/04 14:11:41;;;;;;;11.97;7.10;;;;;;;0.75;43.54;100554.53;1717503;82;21046;-67
2022/02/04 14:14:22;;;;;;;10.00;6.50;;;;;;;0.71;43.77;100541.47;1719280;83;21056;-69
2022/02/04 14:16:56;;;;;;;9.28;5.97;;;;;;;0.65;43.86;100548.80;1720413;83;21032;-67
2022/02/04 14:19:28;;;;;;;12.37;7.17;;;;;;;0.61;43.80;100552.83;1720448;83;21472;-68
2022/02/04 14:21:54;;;;;;;9.03;6.20;;;;;;;0.56;43.86;100552.10;1720642;83;21476;-69
2022/02/04 14:24:22;;;;;;;9.10;5.55;;;;;;;0.53;43.90;100560.36;1720426;82;20992;-67
2022/02/04 14:26:53;;;;;;;8.75;5.00;;;;;;;0.51;43.98;100559.73;1716916;82;21019;-68
2022/02/04 14:32:00;;;;;;;9.05;5.97;;;;;;;0.43;44.30;100572.52;1714743;82;21589;-68
2022/02/04 14:36:59;;;;;;;9.58;6.10;;;;;;;0.39;44.60;100567.81;1715137;82;21090;-67
2022/02/04 14:53:14;;;;;;;9.10;5.65;;;;;;;0.06;45.22;100593.78;1716751;81;21660;-68
2022/02/04 15:01:20;;;;;;;12.55;6.92;;;;;;;-0.13;45.47;100602.59;1641936;85;21040;-68
2022/02/04 15:03:45;;;;;;;18.73;8.78;;;;;;;-0.21;45.44;100602.70;1592145;87;21126;-68
2022/02/04 15:08:39;;;;;;;22.70;10.85;;;;;;;-0.31;45.62;100605.61;1604985;88;21146;-68
2022/02/04 15:11:16;;;;;;;24.50;11.08;;;;;;;-0.36;45.61;100611.93;1622493;86;22068;-69
2022/02/04 15:13:44;;;;;;;20.55;10.65;;;;;;;-0.42;45.71;100613.97;1604597;86;20980;-69
2022/02/04 15:16:10;;;;;;;23.00;11.53;;;;;;;-0.47;45.83;100611.88;1624284;86;21106;-69
2022/02/04 15:18:39;;;;;;;22.42;11.25;;;;;;;-0.50;45.91;100620.61;1629411;85;21049;-69
2022/02/04 15:21:13;;;;;;;24.92;12.37;;;;;;;-0.55;45.92;100620.37;1622715;87;21087;-68
2022/02/04 15:23:39;;;;;;;24.72;13.25;;;;;;;-0.59;45.96;100623.02;1687785;83;21137;-68
2022/02/04 15:26:09;;;;;;;28.45;13.62;;;;;;;-0.63;45.97;100623.07;1688551;83;21223;-69
2022/02/04 15:28:46;;;;;;;29.82;15.05;;;;;;;-0.70;46.00;100622.98;1687225;83;21062;-69
2022/02/04 15:31:33;;;;;;;26.77;15.15;;;;;;;-0.80;46.09;100627.19;1710004;82;21480;-69
2022/02/04 15:33:53;;;;;;;30.72;15.70;;;;;;;-0.91;46.36;100630.27;1699726;82;21125;-67
2022/02/04 15:36:38;;;;;;;30.57;16.10;;;;;;;-0.98;46.52;100626.74;1724226;81;22165;-68
2022/02/04 15:38:58;;;;;;;31.57;17.80;;;;;;;-1.01;46.66;100629.72;1727977;81;21140;-68
2022/02/04 15:41:26;;;;;;;33.95;19.95;;;;;;;-1.07;46.74;100627.31;1720318;82;21108;-68
2022/02/04 15:43:57;;;;;;;32.60;16.93;;;;;;;-1.16;46.93;100632.80;1701509;82;21057;-68
2022/02/04 15:49:15;;;;;;;26.00;13.70;;;;;;;-1.34;47.31;100644.44;1712855;81;21511;-69
2022/02/04 15:51:49;;;;;;;35.28;18.60;;;;;;;-1.37;47.44;100643.47;1700508;83;21110;-69
2022/02/04 15:57:03;;;;;;;;;;;;;;;-1.52;47.54;100647.84;1571850;83;9999696;-69
2022/02/04 15:59:42;;;;;;;38.42;20.10;;;;;;;-1.61;47.48;100630.55;1672869;85;20206;-68
2022/02/04 16:02:15;;;;;;;47.00;22.27;;;;;;;-1.61;47.48;100630.55;1676047;83;21842;-69
2022/02/04 16:04:31;;;;;;;45.90;24.18;;;;;;;-1.60;47.89;100632.20;1636962;87;21077;-68
2022/02/04 16:06:57;;;;;;;47.80;25.85;;;;;;;-1.64;47.93;100637.48;1659575;85;21648;-68
2022/02/04 16:09:25;;;;;;;50.58;27.20;;;;;;;-1.70;48.11;100637.67;1673450;84;22205;-69
2022/02/04 16:12:06;;;;;;;69.82;32.40;;;;;;;-1.77;48.34;100638.87;1676761;83;21050;-69
2022/02/04 16:14:31;;;;;;;71.62;34.40;;;;;;;-1.84;48.47;100639.71;1658090;86;21094;-70
2022/02/04 16:17:00;;;;;;;73.10;33.63;;;;;;;-1.89;48.55;100642.86;1692439;83;21577;-70
2022/02/04 16:22:11;;;;;;;66.37;31.77;;;;;;;-1.94;48.79;100637.31;1710347;82;22001;-70
2022/02/04 16:29:49;;;;;;;69.90;34.43;;;;;;;-1.91;48.95;100644.83;1689360;82;21053;-69
2022/02/04 16:32:16;;;;;;;60.92;30.90;;;;;;;-1.91;48.98;100649.59;1700506;82;21105;-71
2022/02/04 16:34:51;;;;;;;55.48;29.12;;;;;;;-1.92;49.01;100649.25;1693102;82;21564;-69
2022/02/04 16:37:27;;;;;;;51.75;26.25;;;;;;;-1.93;49.06;100650.25;1710077;83;21331;-69
2022/02/04 16:39:47;;;;;;;50.05;25.32;;;;;;;-1.95;49.13;100643.55;1693601;83;21069;-70
2022/02/04 16:42:15;;;;;;;42.50;23.65;;;;;;;-1.96;49.29;100658.45;1690781;83;21568;-72
2022/02/04 16:44:42;;;;;;;41.95;22.62;;;;;;;-2.00;49.64;100662.91;1714322;82;21031;-72
2022/02/04 16:47:08;;;;;;;46.20;23.60;;;;;;;-2.06;49.91;100659.16;1704535;82;21675;-71
2022/02/04 16:49:35;;;;;;;42.30;22.35;;;;;;;-2.12;50.21;100664.58;1718901;82;21596;-72
2022/02/04 16:52:02;;;;;;;42.83;22.00;;;;;;;-2.15;50.35;100664.92;1694325;81;21048;-72
2022/02/04 16:54:28;;;;;;;39.08;20.20;;;;;;;-2.16;50.47;100662.48;1702312;82;21164;-72
2022/02/04 16:56:55;;;;;;;40.83;21.82;;;;;;;-2.20;50.58;100661.20;1700469;82;21136;-71
2022/02/04 16:59:22;;;;;;;41.15;21.05;;;;;;;-2.24;50.76;100665.13;1710367;82;21136;-71
2022/02/04 17:01:48;;;;;;;39.48;21.07;;;;;;;-2.29;50.93;100656.98;1703118;82;21580;-70
2022/02/04 17:04:16;;;;;;;37.75;20.70;;;;;;;-2.31;51.12;100658.95;1703616;82;22169;-71
2022/02/04 17:06:46;;;;;;;40.17;21.17;;;;;;;-2.38;51.25;100651.77;1700610;82;21706;-71
2022/02/04 17:11:45;;;;;;;41.68;22.35;;;;;;;-2.46;51.33;100653.13;1704198;82;21231;-71
2022/02/04 17:14:12;;;;;;;37.75;20.75;;;;;;;-2.47;51.42;100653.28;1702101;82;21032;-71
2022/02/04 17:16:42;;;;;;;37.88;19.80;;;;;;;-2.53;51.42;100653.48;1697850;83;21424;-70